Portada
METAR-TAF:

METAR-TAF

Aeropuertos :

Chongqing, China

Aeropuerto Internacional de Chongqing-Jiangbei

latitud: 29-31N, longitud: 106-29E, altitud: 351 m

Observación

El informe se hizo hace 1 hora y 1 minutos, a las 09:00 UTC
Viento 2 kt con dirección variable
Temperatura 28°C
Humedad 30%
Presión 1009 hPa
Visibilidad 10 km o más
sin nubes por debajo de 1500 m y sin presencia de cumulonimbus.

METAR: ZUCK 230900Z VRB01MPS CAVOK 28/09 Q1009 NOSIG

Hora: 18:01 (10:01 UTC)

Pronóstico

El informe se hizo hace 6 horas y 59 minutos, a las 03:02 UTC
Pronóstico válido del 23 a las 06 UTC al 24 a las 06 UTC
Viento 6 kt del sur-sureste
Visibilidad: 5000 m
Nubes dispersas a una altura de 5000 ft
calima

TAF: ZUCK 230302Z 2306/2406 15003MPS 5000 HZ SCT050 TX27/2308Z TN16/2322Z

Observaciones y pronósticos meteorológicos de más de 4000 aeropuertos (mensajes METAR y TAF).

Los puntos amarillos y rojos representan las estaciones disponibles.

Ponga el ratón en el punto deseado para ver el nombre de la estación.

Haga clic para ver las observaciones y los pronósticos meteorológicos.

Para cambiar el mapa : haga clic en los botones verdes con una cruz de color negro para hacer un zoom, en el botón verde con un guión para alejar o en las flechas verdes para mapas adyacentes.


METAR-TAF: